»·PEaware :: N143VT KGJT-KPRC

N143VT :: KGJT-KPRC

FLIGHT INFORMATION

Flight Status: Arrived
Operator: Privately registered:
United States
More flights under this callsign
Pilot: Anonymous 16492 (16492)
Aircraft: ECLIPSE 500
(EA50)
More flights by this aircraft type
Origin: KGJT Walker
United States
Destination: KPRC Love
United States
More flights between these airports :: More routes between these airports
Route: +GRAND1 JNC V8 HVE V208 PGA V293 GCN V257 BISOP MUMTE
File this flight plan on PilotEdge
Remarks:
Altitude:
(Current/Filed)
28,000ft
Speed:
(Current/Filed)
330kts
Departed: 03-Sep-18 04:53 PM
Arrived: 03-Sep-18 05:59 PM
Distance/Time
Traveled:
327nm/1:06
Distance/Time
To Go:
Arrived

Flight Plot

Page will automatically refresh every two minutes.

Flight plan parsing failed; only flown route is shown


Map Options




Map Legend


Flown Route
Filed Route
Departure Airport
Arrival Airport
Navaid (VOR, NDB)
Fix

Horizontal Profiles

Position Reports

Time Latitude Longitude Heading Altitude Ground
Speed
03-Sep-18 16:20 39.122292 -108.526856 38 4859ft 0kts
03-Sep-18 16:21 39.122292 -108.526856 38 4859ft 0kts
03-Sep-18 16:22 39.122292 -108.526856 38 4859ft 0kts
03-Sep-18 16:23 39.122292 -108.526856 38 4859ft 0kts
03-Sep-18 16:24 39.122292 -108.526856 38 4859ft 0kts
03-Sep-18 16:25 39.122292 -108.526856 38 4859ft 0kts
03-Sep-18 16:26 39.122292 -108.526856 38 4859ft 0kts
03-Sep-18 16:27 39.122292 -108.526856 38 4859ft 0kts
03-Sep-18 16:28 39.122292 -108.526856 38 4859ft 0kts
03-Sep-18 16:29 39.122292 -108.526856 38 4859ft 0kts
03-Sep-18 16:30 39.122292 -108.526856 38 4859ft 0kts
03-Sep-18 16:31 39.122292 -108.526856 38 4859ft 0kts
03-Sep-18 16:32 39.122292 -108.526856 38 4859ft 0kts
03-Sep-18 16:33 39.122292 -108.526856 38 4859ft 0kts
03-Sep-18 16:34 39.122292 -108.526856 38 4859ft 0kts
03-Sep-18 16:35 39.122292 -108.526856 38 4859ft 0kts
03-Sep-18 16:36 39.122292 -108.526856 38 4859ft 0kts
03-Sep-18 16:37 39.122292 -108.526856 38 4859ft 0kts
03-Sep-18 16:38 39.122292 -108.526856 38 4859ft 0kts
03-Sep-18 16:39 39.122292 -108.526856 38 4859ft 0kts
03-Sep-18 16:40 39.122292 -108.526856 38 4859ft 0kts
03-Sep-18 16:41 39.122292 -108.526856 38 4859ft 0kts
03-Sep-18 16:42 39.122292 -108.526856 38 4859ft 0kts
03-Sep-18 16:43 39.122951 -108.526019 49 4859ft 3kts
03-Sep-18 16:44 39.122081 -108.523299 123 4859ft 17kts
03-Sep-18 16:45 39.119870 -108.519275 124 4859ft 12kts
03-Sep-18 16:46 39.118261 -108.516353 125 4859ft 0kts
03-Sep-18 16:47 39.118261 -108.516353 125 4859ft 0kts
03-Sep-18 16:48 39.118261 -108.516353 125 4859ft 0kts
03-Sep-18 16:49 39.118261 -108.516353 125 4859ft 0kts
03-Sep-18 16:50 39.118261 -108.516353 125 4859ft 0kts
03-Sep-18 16:51 39.118261 -108.516353 125 4859ft 0kts
03-Sep-18 16:52 39.117972 -108.515797 112 4859ft 6kts
03-Sep-18 16:53 39.118003 -108.515358 54 4859ft 4kts
03-Sep-18 16:54 39.122215 -108.521115 304 4859ft 92kts
03-Sep-18 16:55 39.136443 -108.563785 279 6014ft 166kts
03-Sep-18 16:56 39.143670 -108.627488 279 8244ft 186kts
03-Sep-18 16:57 39.134498 -108.689263 227 10522ft 194kts
03-Sep-18 16:58 39.097298 -108.740545 227 12632ft 201kts
03-Sep-18 16:59 39.060212 -108.795040 247 14592ft 205kts
03-Sep-18 17:00 39.037349 -108.862463 249 16459ft 208kts
03-Sep-18 17:01 39.014364 -108.932065 246 18000ft 222kts
03-Sep-18 17:02 38.989658 -109.006908 245 19526ft 231kts
03-Sep-18 17:03 38.964395 -109.083466 244 21034ft 235kts
03-Sep-18 17:04 38.938861 -109.160711 244 22450ft 237kts
03-Sep-18 17:05 38.913684 -109.236276 249 23965ft 229kts
03-Sep-18 17:06 38.888906 -109.311355 248 25153ft 231kts
03-Sep-18 17:07 38.863546 -109.387775 248 26255ft 234kts
03-Sep-18 17:08 38.837817 -109.465025 248 27279ft 238kts
03-Sep-18 17:09 38.811468 -109.543889 247 28013ft 250kts
03-Sep-18 17:10 38.782044 -109.631655 247 28019ft 285kts
03-Sep-18 17:11 38.749649 -109.727987 247 28020ft 309kts
03-Sep-18 17:12 38.714813 -109.831216 246 28019ft 324kts
03-Sep-18 17:13 38.678491 -109.938463 247 28019ft 333kts
03-Sep-18 17:14 38.641124 -110.048415 246 28018ft 339kts
03-Sep-18 17:15 38.603275 -110.159356 246 28018ft 343kts
03-Sep-18 17:16 38.565124 -110.270748 246 28015ft 345kts
03-Sep-18 17:17 38.526542 -110.382947 246 28024ft 346kts
03-Sep-18 17:18 38.487780 -110.495248 246 28026ft 346kts
03-Sep-18 17:20 38.448822 -110.607676 246 28026ft 347kts
03-Sep-18 17:21 38.394283 -110.702723 208 28030ft 351kts
03-Sep-18 17:22 38.305977 -110.754707 204 28028ft 352kts
03-Sep-18 17:23 38.215621 -110.802471 203 28027ft 353kts
03-Sep-18 17:24 38.124701 -110.849227 203 28027ft 353kts
03-Sep-18 17:25 38.033802 -110.895591 203 28027ft 353kts
03-Sep-18 17:26 37.943091 -110.941804 200 28026ft 352kts
03-Sep-18 17:27 37.854148 -110.986772 200 28028ft 352kts
03-Sep-18 17:28 37.763555 -111.032504 199 28027ft 353kts
03-Sep-18 17:29 37.672720 -111.078266 199 28029ft 354kts
03-Sep-18 17:30 37.581929 -111.123881 199 28035ft 355kts
03-Sep-18 17:31 37.490453 -111.169703 199 28036ft 356kts
03-Sep-18 17:32 37.398563 -111.215634 199 28036ft 357kts
03-Sep-18 17:33 37.306645 -111.261450 199 28037ft 358kts
03-Sep-18 17:34 37.214424 -111.307301 199 28037ft 358kts
03-Sep-18 17:35 37.122141 -111.353065 199 28037ft 358kts
03-Sep-18 17:36 37.030138 -111.398391 203 28037ft 348kts
03-Sep-18 17:37 36.939779 -111.443219 205 28034ft 351kts
03-Sep-18 17:38 36.856324 -111.502299 212 28035ft 353kts
03-Sep-18 17:39 36.771587 -111.563672 212 28035ft 355kts
03-Sep-18 17:40 36.686552 -111.625322 212 28035ft 356kts
03-Sep-18 17:41 36.601629 -111.686794 211 28037ft 356kts
03-Sep-18 17:42 36.516318 -111.748391 211 28037ft 357kts
03-Sep-18 17:43 36.430529 -111.810184 211 28080ft 356kts
03-Sep-18 17:44 36.346613 -111.870473 211 28207ft 354kts
03-Sep-18 17:45 36.262751 -111.930566 211 28256ft 355kts
03-Sep-18 17:46 36.178182 -111.991050 211 28233ft 356kts
03-Sep-18 17:47 36.093358 -112.051539 211 28252ft 356kts
03-Sep-18 17:48 36.008885 -112.111604 211 28253ft 357kts
03-Sep-18 17:49 35.924779 -112.172402 212 28257ft 356kts
03-Sep-18 17:50 35.900065 -112.190639 212 28270ft 356kts
03-Sep-18 18:01 34.653861 -112.422594 130 5044ft 0kts
03-Sep-18 18:02 34.653861 -112.422594 130 5044ft 0kts

Navigation Log

Ident Type
Flight plan parsing failed, navigation log unavailable